<?xml version="1.0" encoding="utf-8"?>
<gpx xmlns:xsi="http://www.w3.org/2001/XMLSchema-instance" xmlns:xsd="http://www.w3.org/2001/XMLSchema" version="1.1" creator="Shapelink.com" xmlns="http://www.topografix.com/GPX/1/1" xmlns:gpxtpx="http://www.garmin.com/xmlschemas/TrackPointExtension/v1">
  <metadata>
    <name>Ejecutar 2.91 km, 2019-11-09</name>
    <desc></desc>
    <author><name>Per Rooth</name></author> 
    <time>2019-11-09T10:34:37Z</time>
  </metadata>
  <trk>
    <name>Ejecutar 2.91 km, 2019-11-09</name>
    <trkseg>
      <trkpt lat="57.73960160226" lon="12.916018229402">
        <ele>252.2</ele>
        <time>2019-11-09T10:34:37Z</time>
      </trkpt>
      <trkpt lat="57.739599758242" lon="12.91612484717">
        <ele>252.2</ele>
        <time>2019-11-09T10:34:40Z</time>
      </trkpt>
      <trkpt lat="57.739616019128" lon="12.916281840157">
        <ele>253</ele>
        <time>2019-11-09T10:34:45Z</time>
      </trkpt>
      <trkpt lat="57.739608391599" lon="12.916321654182">
        <ele>253.4</ele>
        <time>2019-11-09T10:34:47Z</time>
      </trkpt>
      <trkpt lat="57.739592214532" lon="12.916385859536">
        <ele>253.4</ele>
        <time>2019-11-09T10:34:49Z</time>
      </trkpt>
      <trkpt lat="57.739528847368" lon="12.916503541412">
        <ele>252</ele>
        <time>2019-11-09T10:34:53Z</time>
      </trkpt>
      <trkpt lat="57.739510826283" lon="12.916538242478">
        <ele>251.6</ele>
        <time>2019-11-09T10:34:54Z</time>
      </trkpt>
      <trkpt lat="57.73946749186" lon="12.916614601587">
        <ele>250.8</ele>
        <time>2019-11-09T10:34:56Z</time>
      </trkpt>
      <trkpt lat="57.739355258219" lon="12.916743850485">
        <ele>249.8</ele>
        <time>2019-11-09T10:35:01Z</time>
      </trkpt>
      <trkpt lat="57.739271271581" lon="12.916908303363">
        <ele>248.4</ele>
        <time>2019-11-09T10:35:06Z</time>
      </trkpt>
      <trkpt lat="57.739247466985" lon="12.916966222292">
        <ele>247.4</ele>
        <time>2019-11-09T10:35:08Z</time>
      </trkpt>
      <trkpt lat="57.739197510861" lon="12.917133105921">
        <ele>247</ele>
        <time>2019-11-09T10:35:14Z</time>
      </trkpt>
      <trkpt lat="57.739136574448" lon="12.917502915349">
        <ele>247.8</ele>
        <time>2019-11-09T10:35:20Z</time>
      </trkpt>
      <trkpt lat="57.739060299158" lon="12.917851686208">
        <ele>247.6</ele>
        <time>2019-11-09T10:35:25Z</time>
      </trkpt>
      <trkpt lat="57.738967427706" lon="12.918013959792">
        <ele>247.2</ele>
        <time>2019-11-09T10:35:29Z</time>
      </trkpt>
      <trkpt lat="57.738901210696" lon="12.918005577892">
        <ele>247.4</ele>
        <time>2019-11-09T10:35:31Z</time>
      </trkpt>
      <trkpt lat="57.738717982362" lon="12.917868030913">
        <ele>247.2</ele>
        <time>2019-11-09T10:35:38Z</time>
      </trkpt>
      <trkpt lat="57.738547745973" lon="12.917730483934">
        <ele>247</ele>
        <time>2019-11-09T10:35:44Z</time>
      </trkpt>
      <trkpt lat="57.738486641922" lon="12.917664434562">
        <ele>247</ele>
        <time>2019-11-09T10:35:47Z</time>
      </trkpt>
      <trkpt lat="57.738323530148" lon="12.91747517126">
        <ele>247</ele>
        <time>2019-11-09T10:35:55Z</time>
      </trkpt>
      <trkpt lat="57.7383074369" lon="12.917464610066">
        <ele>247</ele>
        <time>2019-11-09T10:35:56Z</time>
      </trkpt>
      <trkpt lat="57.73828145301" lon="12.917427897344">
        <ele>247.6</ele>
        <time>2019-11-09T10:35:58Z</time>
      </trkpt>
      <trkpt lat="57.738260833536" lon="12.917371906252">
        <ele>248.4</ele>
        <time>2019-11-09T10:36:01Z</time>
      </trkpt>
      <trkpt lat="57.738194700345" lon="12.917204519709">
        <ele>247.4</ele>
        <time>2019-11-09T10:36:06Z</time>
      </trkpt>
      <trkpt lat="57.738106774214" lon="12.917082479245">
        <ele>246.4</ele>
        <time>2019-11-09T10:36:10Z</time>
      </trkpt>
      <trkpt lat="57.738053381511" lon="12.917034450958">
        <ele>246.8</ele>
        <time>2019-11-09T10:36:13Z</time>
      </trkpt>
      <trkpt lat="57.737988254148" lon="12.917033361311">
        <ele>247.2</ele>
        <time>2019-11-09T10:36:17Z</time>
      </trkpt>
      <trkpt lat="57.737950200322" lon="12.917002180643">
        <ele>248.4</ele>
        <time>2019-11-09T10:36:19Z</time>
      </trkpt>
      <trkpt lat="57.737929077934" lon="12.917014250579">
        <ele>250</ele>
        <time>2019-11-09T10:36:21Z</time>
      </trkpt>
      <trkpt lat="57.737914409609" lon="12.917054148423">
        <ele>251</ele>
        <time>2019-11-09T10:36:23Z</time>
      </trkpt>
      <trkpt lat="57.737900747112" lon="12.917103517814">
        <ele>252</ele>
        <time>2019-11-09T10:36:25Z</time>
      </trkpt>
      <trkpt lat="57.73789923837" lon="12.917127657686">
        <ele>252.6</ele>
        <time>2019-11-09T10:36:26Z</time>
      </trkpt>
      <trkpt lat="57.73790007656" lon="12.917155066499">
        <ele>253</ele>
        <time>2019-11-09T10:36:27Z</time>
      </trkpt>
      <trkpt lat="57.737886581701" lon="12.917178452">
        <ele>253.6</ele>
        <time>2019-11-09T10:36:30Z</time>
      </trkpt>
      <trkpt lat="57.73782883041" lon="12.91711894051">
        <ele>253.6</ele>
        <time>2019-11-09T10:36:35Z</time>
      </trkpt>
      <trkpt lat="57.737812569524" lon="12.917005449584">
        <ele>253</ele>
        <time>2019-11-09T10:36:39Z</time>
      </trkpt>
      <trkpt lat="57.737806115461" lon="12.916991787087">
        <ele>252.6</ele>
        <time>2019-11-09T10:36:40Z</time>
      </trkpt>
      <trkpt lat="57.737798907027" lon="12.91698483011">
        <ele>252</ele>
        <time>2019-11-09T10:36:41Z</time>
      </trkpt>
      <trkpt lat="57.737764960332" lon="12.916956164012">
        <ele>251.4</ele>
        <time>2019-11-09T10:36:44Z</time>
      </trkpt>
      <trkpt lat="57.737732270922" lon="12.916903441861">
        <ele>251.2</ele>
        <time>2019-11-09T10:36:47Z</time>
      </trkpt>
      <trkpt lat="57.737604866042" lon="12.916781569035">
        <ele>250.4</ele>
        <time>2019-11-09T10:36:55Z</time>
      </trkpt>
      <trkpt lat="57.73758324074" lon="12.916760446647">
        <ele>250.4</ele>
        <time>2019-11-09T10:36:57Z</time>
      </trkpt>
      <trkpt lat="57.737559939058" lon="12.916739827173">
        <ele>250.4</ele>
        <time>2019-11-09T10:36:59Z</time>
      </trkpt>
      <trkpt lat="57.737523142517" lon="12.916710322885">
        <ele>250.8</ele>
        <time>2019-11-09T10:37:02Z</time>
      </trkpt>
      <trkpt lat="57.737479640456" lon="12.916556850296">
        <ele>251.8</ele>
        <time>2019-11-09T10:37:08Z</time>
      </trkpt>
      <trkpt lat="57.737469833633" lon="12.916425673561">
        <ele>251.8</ele>
        <time>2019-11-09T10:37:16Z</time>
      </trkpt>
      <trkpt lat="57.737417865853" lon="12.916284773822">
        <ele>251.2</ele>
        <time>2019-11-09T10:37:21Z</time>
      </trkpt>
      <trkpt lat="57.73740135351" lon="12.916269518764">
        <ele>250.6</ele>
        <time>2019-11-09T10:37:23Z</time>
      </trkpt>
      <trkpt lat="57.73739632437" lon="12.916270189316">
        <ele>250.2</ele>
        <time>2019-11-09T10:37:24Z</time>
      </trkpt>
      <trkpt lat="57.737384673529" lon="12.916245630349">
        <ele>248.8</ele>
        <time>2019-11-09T10:37:27Z</time>
      </trkpt>
      <trkpt lat="57.737381907502" lon="12.916227357807">
        <ele>247.6</ele>
        <time>2019-11-09T10:37:30Z</time>
      </trkpt>
      <trkpt lat="57.737382745692" lon="12.91619860789">
        <ele>246.2</ele>
        <time>2019-11-09T10:37:32Z</time>
      </trkpt>
      <trkpt lat="57.737380734036" lon="12.916160386426">
        <ele>245.2</ele>
        <time>2019-11-09T10:37:34Z</time>
      </trkpt>
      <trkpt lat="57.737364221693" lon="12.916074807227">
        <ele>244.8</ele>
        <time>2019-11-09T10:37:35Z</time>
      </trkpt>
      <trkpt lat="57.737358438182" lon="12.91603516084">
        <ele>244.4</ele>
        <time>2019-11-09T10:37:36Z</time>
      </trkpt>
      <trkpt lat="57.737345949151" lon="12.915941032103">
        <ele>243.6</ele>
        <time>2019-11-09T10:37:38Z</time>
      </trkpt>
      <trkpt lat="57.737326335505" lon="12.915873306351">
        <ele>242.4</ele>
        <time>2019-11-09T10:37:40Z</time>
      </trkpt>
      <trkpt lat="57.737291131525" lon="12.915786386048">
        <ele>241.2</ele>
        <time>2019-11-09T10:37:43Z</time>
      </trkpt>
      <trkpt lat="57.737253915889" lon="12.915735759372">
        <ele>241.2</ele>
        <time>2019-11-09T10:37:45Z</time>
      </trkpt>
      <trkpt lat="57.737211168199" lon="12.915660825186">
        <ele>241</ele>
        <time>2019-11-09T10:37:48Z</time>
      </trkpt>
      <trkpt lat="57.737073705039" lon="12.915448763116">
        <ele>240.6</ele>
        <time>2019-11-09T10:37:56Z</time>
      </trkpt>
      <trkpt lat="57.736943869408" lon="12.915415403154">
        <ele>242</ele>
        <time>2019-11-09T10:38:04Z</time>
      </trkpt>
      <trkpt lat="57.736934900775" lon="12.915408027082">
        <ele>242.4</ele>
        <time>2019-11-09T10:38:05Z</time>
      </trkpt>
      <trkpt lat="57.736917466423" lon="12.915427976004">
        <ele>242.8</ele>
        <time>2019-11-09T10:38:08Z</time>
      </trkpt>
      <trkpt lat="57.736888297411" lon="12.915434430067">
        <ele>243</ele>
        <time>2019-11-09T10:38:11Z</time>
      </trkpt>
      <trkpt lat="57.736830378482" lon="12.915423449778">
        <ele>243.8</ele>
        <time>2019-11-09T10:38:15Z</time>
      </trkpt>
      <trkpt lat="57.73681881146" lon="12.9154350168">
        <ele>244.2</ele>
        <time>2019-11-09T10:38:16Z</time>
      </trkpt>
      <trkpt lat="57.736771286087" lon="12.915457396473">
        <ele>244.8</ele>
        <time>2019-11-09T10:38:18Z</time>
      </trkpt>
      <trkpt lat="57.736749660785" lon="12.915459827224">
        <ele>245</ele>
        <time>2019-11-09T10:38:19Z</time>
      </trkpt>
      <trkpt lat="57.736690819847" lon="12.915509699529">
        <ele>245.8</ele>
        <time>2019-11-09T10:38:22Z</time>
      </trkpt>
      <trkpt lat="57.736651676374" lon="12.915532330659">
        <ele>246.2</ele>
        <time>2019-11-09T10:38:24Z</time>
      </trkpt>
      <trkpt lat="57.736614712195" lon="12.915549681192">
        <ele>246.4</ele>
        <time>2019-11-09T10:38:26Z</time>
      </trkpt>
      <trkpt lat="57.73658579464" lon="12.915622855179">
        <ele>246.8</ele>
        <time>2019-11-09T10:38:29Z</time>
      </trkpt>
      <trkpt lat="57.736579340577" lon="12.91564204973">
        <ele>247.2</ele>
        <time>2019-11-09T10:38:30Z</time>
      </trkpt>
      <trkpt lat="57.736543549864" lon="12.915689407465">
        <ele>247.8</ele>
        <time>2019-11-09T10:38:33Z</time>
      </trkpt>
      <trkpt lat="57.736515554318" lon="12.915733747716">
        <ele>248</ele>
        <time>2019-11-09T10:38:35Z</time>
      </trkpt>
      <trkpt lat="57.736502478554" lon="12.915757971407">
        <ele>248.4</ele>
        <time>2019-11-09T10:38:36Z</time>
      </trkpt>
      <trkpt lat="57.736486972039" lon="12.915799210355">
        <ele>248.6</ele>
        <time>2019-11-09T10:38:37Z</time>
      </trkpt>
      <trkpt lat="57.736445565453" lon="12.91591362329">
        <ele>249.4</ele>
        <time>2019-11-09T10:38:40Z</time>
      </trkpt>
      <trkpt lat="57.736432238232" lon="12.915950671288">
        <ele>249.6</ele>
        <time>2019-11-09T10:38:41Z</time>
      </trkpt>
      <trkpt lat="57.736412205491" lon="12.915965004337">
        <ele>249.6</ele>
        <time>2019-11-09T10:38:43Z</time>
      </trkpt>
      <trkpt lat="57.73639887827" lon="12.915973637694">
        <ele>249.6</ele>
        <time>2019-11-09T10:38:45Z</time>
      </trkpt>
      <trkpt lat="57.736375828045" lon="12.915988976571">
        <ele>249.6</ele>
        <time>2019-11-09T10:38:47Z</time>
      </trkpt>
      <trkpt lat="57.736303156972" lon="12.916016301565">
        <ele>250</ele>
        <time>2019-11-09T10:38:51Z</time>
      </trkpt>
      <trkpt lat="57.736266528069" lon="12.916047901328">
        <ele>250.4</ele>
        <time>2019-11-09T10:38:53Z</time>
      </trkpt>
      <trkpt lat="57.736169968581" lon="12.916094420873">
        <ele>251.6</ele>
        <time>2019-11-09T10:38:58Z</time>
      </trkpt>
      <trkpt lat="57.736131328022" lon="12.916099030918">
        <ele>252.2</ele>
        <time>2019-11-09T10:39:00Z</time>
      </trkpt>
      <trkpt lat="57.736095621128" lon="12.916098695642">
        <ele>252.8</ele>
        <time>2019-11-09T10:39:02Z</time>
      </trkpt>
      <trkpt lat="57.736041306416" lon="12.916096516348">
        <ele>254.2</ele>
        <time>2019-11-09T10:39:05Z</time>
      </trkpt>
      <trkpt lat="57.736000151287" lon="12.916082015661">
        <ele>254.8</ele>
        <time>2019-11-09T10:39:07Z</time>
      </trkpt>
      <trkpt lat="57.735955894855" lon="12.916067598793">
        <ele>255.2</ele>
        <time>2019-11-09T10:39:09Z</time>
      </trkpt>
      <trkpt lat="57.735936113571" lon="12.916071538286">
        <ele>255.4</ele>
        <time>2019-11-09T10:39:10Z</time>
      </trkpt>
      <trkpt lat="57.735882301773" lon="12.91605192464">
        <ele>256.4</ele>
        <time>2019-11-09T10:39:13Z</time>
      </trkpt>
      <trkpt lat="57.735823460835" lon="12.916006494742">
        <ele>257.6</ele>
        <time>2019-11-09T10:39:17Z</time>
      </trkpt>
      <trkpt lat="57.735775181091" lon="12.916018229402">
        <ele>257.6</ele>
        <time>2019-11-09T10:39:20Z</time>
      </trkpt>
      <trkpt lat="57.735661941622" lon="12.916026192207">
        <ele>256.2</ele>
        <time>2019-11-09T10:39:25Z</time>
      </trkpt>
      <trkpt lat="57.735528417955" lon="12.916056031771">
        <ele>255</ele>
        <time>2019-11-09T10:39:27Z</time>
      </trkpt>
      <trkpt lat="57.735475025252" lon="12.916050332079">
        <ele>254.2</ele>
        <time>2019-11-09T10:39:29Z</time>
      </trkpt>
      <trkpt lat="57.73542238692" lon="12.916041614903">
        <ele>254</ele>
        <time>2019-11-09T10:39:32Z</time>
      </trkpt>
      <trkpt lat="57.735402102722" lon="12.916064078395">
        <ele>253.8</ele>
        <time>2019-11-09T10:39:33Z</time>
      </trkpt>
      <trkpt lat="57.735357259557" lon="12.916109340655">
        <ele>253.6</ele>
        <time>2019-11-09T10:39:35Z</time>
      </trkpt>
      <trkpt lat="57.73532180412" lon="12.916122919333">
        <ele>253.2</ele>
        <time>2019-11-09T10:39:37Z</time>
      </trkpt>
      <trkpt lat="57.7353067167" lon="12.9161223326">
        <ele>252.4</ele>
        <time>2019-11-09T10:39:38Z</time>
      </trkpt>
      <trkpt lat="57.73529917299" lon="12.916100707298">
        <ele>251.4</ele>
        <time>2019-11-09T10:39:39Z</time>
      </trkpt>
      <trkpt lat="57.735294479126" lon="12.916083943498">
        <ele>251</ele>
        <time>2019-11-09T10:39:40Z</time>
      </trkpt>
      <trkpt lat="57.735268495236" lon="12.916044045654">
        <ele>250.2</ele>
        <time>2019-11-09T10:39:42Z</time>
      </trkpt>
      <trkpt lat="57.735250055056" lon="12.916031891899">
        <ele>249.8</ele>
        <time>2019-11-09T10:39:43Z</time>
      </trkpt>
      <trkpt lat="57.73522541227" lon="12.91601755885">
        <ele>249.2</ele>
        <time>2019-11-09T10:39:45Z</time>
      </trkpt>
      <trkpt lat="57.735210408669" lon="12.916026695121">
        <ele>248.6</ele>
        <time>2019-11-09T10:39:47Z</time>
      </trkpt>
      <trkpt lat="57.735142347641" lon="12.916039100333">
        <ele>248</ele>
        <time>2019-11-09T10:39:58Z</time>
      </trkpt>
      <trkpt lat="57.735101946883" lon="12.916072292657">
        <ele>247.4</ele>
        <time>2019-11-09T10:40:01Z</time>
      </trkpt>
      <trkpt lat="57.735061797582" lon="12.916132223242">
        <ele>246.2</ele>
        <time>2019-11-09T10:40:05Z</time>
      </trkpt>
      <trkpt lat="57.735055930252" lon="12.916138761124">
        <ele>245.8</ele>
        <time>2019-11-09T10:40:06Z</time>
      </trkpt>
      <trkpt lat="57.735049979103" lon="12.916145466644">
        <ele>245.2</ele>
        <time>2019-11-09T10:40:08Z</time>
      </trkpt>
      <trkpt lat="57.735035897511" lon="12.91615250744">
        <ele>244.2</ele>
        <time>2019-11-09T10:40:15Z</time>
      </trkpt>
      <trkpt lat="57.734973033261" lon="12.91611562708">
        <ele>243.6</ele>
        <time>2019-11-09T10:40:27Z</time>
      </trkpt>
      <trkpt lat="57.734963645533" lon="12.916157955675">
        <ele>243.4</ele>
        <time>2019-11-09T10:40:29Z</time>
      </trkpt>
      <trkpt lat="57.73494126586" lon="12.916185029212">
        <ele>243</ele>
        <time>2019-11-09T10:40:31Z</time>
      </trkpt>
      <trkpt lat="57.734923580051" lon="12.91619860789">
        <ele>241.8</ele>
        <time>2019-11-09T10:40:33Z</time>
      </trkpt>
      <trkpt lat="57.734907822079" lon="12.916258035561">
        <ele>241.2</ele>
        <time>2019-11-09T10:40:36Z</time>
      </trkpt>
      <trkpt lat="57.734915617246" lon="12.916263483796">
        <ele>241</ele>
        <time>2019-11-09T10:40:38Z</time>
      </trkpt>
      <trkpt lat="57.734917461264" lon="12.916268512936">
        <ele>240.8</ele>
        <time>2019-11-09T10:40:40Z</time>
      </trkpt>
      <trkpt lat="57.73494461862" lon="12.916270021678">
        <ele>241.2</ele>
        <time>2019-11-09T10:40:56Z</time>
      </trkpt>
      <trkpt lat="57.734953587253" lon="12.91625392843">
        <ele>241.2</ele>
        <time>2019-11-09T10:40:58Z</time>
      </trkpt>
      <trkpt lat="57.734934644159" lon="12.916205732505">
        <ele>241</ele>
        <time>2019-11-09T10:41:01Z</time>
      </trkpt>
      <trkpt lat="57.734892818478" lon="12.916180083891">
        <ele>240.8</ele>
        <time>2019-11-09T10:41:03Z</time>
      </trkpt>
      <trkpt lat="57.734863900923" lon="12.916174048923">
        <ele>239.8</ele>
        <time>2019-11-09T10:41:05Z</time>
      </trkpt>
      <trkpt lat="57.734844790191" lon="12.916173629828">
        <ele>238</ele>
        <time>2019-11-09T10:41:07Z</time>
      </trkpt>
      <trkpt lat="57.734822075242" lon="12.916191734732">
        <ele>236.2</ele>
        <time>2019-11-09T10:41:09Z</time>
      </trkpt>
      <trkpt lat="57.73482727202" lon="12.916169355059">
        <ele>234.8</ele>
        <time>2019-11-09T10:41:11Z</time>
      </trkpt>
      <trkpt lat="57.734775388059" lon="12.916066760603">
        <ele>234.4</ele>
        <time>2019-11-09T10:41:24Z</time>
      </trkpt>
      <trkpt lat="57.734804892347" lon="12.915976403721">
        <ele>235.4</ele>
        <time>2019-11-09T10:41:28Z</time>
      </trkpt>
      <trkpt lat="57.734815285903" lon="12.915959639921">
        <ele>236.2</ele>
        <time>2019-11-09T10:41:29Z</time>
      </trkpt>
      <trkpt lat="57.734843029992" lon="12.915917143688">
        <ele>237.8</ele>
        <time>2019-11-09T10:41:31Z</time>
      </trkpt>
      <trkpt lat="57.734865325846" lon="12.915882861717">
        <ele>239.8</ele>
        <time>2019-11-09T10:41:33Z</time>
      </trkpt>
      <trkpt lat="57.73487504885" lon="12.915864337718">
        <ele>241.6</ele>
        <time>2019-11-09T10:41:35Z</time>
      </trkpt>
      <trkpt lat="57.734883598388" lon="12.915846651909">
        <ele>242.8</ele>
        <time>2019-11-09T10:41:37Z</time>
      </trkpt>
      <trkpt lat="57.73490187093" lon="12.915866936107">
        <ele>244.4</ele>
        <time>2019-11-09T10:41:39Z</time>
      </trkpt>
      <trkpt lat="57.734915365789" lon="12.915875401826">
        <ele>245.4</ele>
        <time>2019-11-09T10:41:40Z</time>
      </trkpt>
      <trkpt lat="57.73494461862" lon="12.915861487872">
        <ele>246</ele>
        <time>2019-11-09T10:41:41Z</time>
      </trkpt>
      <trkpt lat="57.734977559487" lon="12.915834414335">
        <ele>247</ele>
        <time>2019-11-09T10:41:43Z</time>
      </trkpt>
      <trkpt lat="57.734983594455" lon="12.915826032435">
        <ele>247.4</ele>
        <time>2019-11-09T10:41:44Z</time>
      </trkpt>
      <trkpt lat="57.734999520065" lon="12.915798623622">
        <ele>248</ele>
        <time>2019-11-09T10:41:47Z</time>
      </trkpt>
      <trkpt lat="57.735011003268" lon="12.915772555913">
        <ele>248.6</ele>
        <time>2019-11-09T10:41:48Z</time>
      </trkpt>
      <trkpt lat="57.735020474815" lon="12.915750930611">
        <ele>249.2</ele>
        <time>2019-11-09T10:41:49Z</time>
      </trkpt>
      <trkpt lat="57.735043944135" lon="12.915713212061">
        <ele>249.8</ele>
        <time>2019-11-09T10:41:51Z</time>
      </trkpt>
      <trkpt lat="57.73507956721" lon="12.915691922035">
        <ele>250.6</ele>
        <time>2019-11-09T10:41:54Z</time>
      </trkpt>
      <trkpt lat="57.735113346267" lon="12.915694436605">
        <ele>250.8</ele>
        <time>2019-11-09T10:41:55Z</time>
      </trkpt>
      <trkpt lat="57.735135055388" lon="12.915709859301">
        <ele>251.8</ele>
        <time>2019-11-09T10:41:57Z</time>
      </trkpt>
      <trkpt lat="57.735146035677" lon="12.915709859301">
        <ele>252.2</ele>
        <time>2019-11-09T10:41:58Z</time>
      </trkpt>
      <trkpt lat="57.735239745319" lon="12.915687814904">
        <ele>252.6</ele>
        <time>2019-11-09T10:42:03Z</time>
      </trkpt>
      <trkpt lat="57.735255754748" lon="12.915708015283">
        <ele>252.4</ele>
        <time>2019-11-09T10:42:04Z</time>
      </trkpt>
      <trkpt lat="57.735265142476" lon="12.915741626702">
        <ele>252.4</ele>
        <time>2019-11-09T10:42:06Z</time>
      </trkpt>
      <trkpt lat="57.735292970384" lon="12.915830558661">
        <ele>253</ele>
        <time>2019-11-09T10:42:15Z</time>
      </trkpt>
      <trkpt lat="57.735301771379" lon="12.916000292136">
        <ele>253</ele>
        <time>2019-11-09T10:42:18Z</time>
      </trkpt>
      <trkpt lat="57.735318116084" lon="12.916351577565">
        <ele>252</ele>
        <time>2019-11-09T10:42:27Z</time>
      </trkpt>
      <trkpt lat="57.735317445532" lon="12.916386027174">
        <ele>251.6</ele>
        <time>2019-11-09T10:42:28Z</time>
      </trkpt>
      <trkpt lat="57.735324905423" lon="12.916473618029">
        <ele>251</ele>
        <time>2019-11-09T10:42:31Z</time>
      </trkpt>
      <trkpt lat="57.735309482727" lon="12.916547965482">
        <ele>250.6</ele>
        <time>2019-11-09T10:42:34Z</time>
      </trkpt>
      <trkpt lat="57.735278553516" lon="12.91674510777">
        <ele>250.2</ele>
        <time>2019-11-09T10:42:44Z</time>
      </trkpt>
      <trkpt lat="57.735264052829" lon="12.916883241482">
        <ele>249.4</ele>
        <time>2019-11-09T10:42:47Z</time>
      </trkpt>
      <trkpt lat="57.735257598766" lon="12.916956918383">
        <ele>248.2</ele>
        <time>2019-11-09T10:42:49Z</time>
      </trkpt>
      <trkpt lat="57.735259275146" lon="12.917037803718">
        <ele>247.6</ele>
        <time>2019-11-09T10:42:52Z</time>
      </trkpt>
      <trkpt lat="57.735288025063" lon="12.91714157164">
        <ele>247.2</ele>
        <time>2019-11-09T10:43:01Z</time>
      </trkpt>
      <trkpt lat="57.735280062258" lon="12.917237292938">
        <ele>246.4</ele>
        <time>2019-11-09T10:43:04Z</time>
      </trkpt>
      <trkpt lat="57.735271261263" lon="12.91729831317">
        <ele>246</ele>
        <time>2019-11-09T10:43:06Z</time>
      </trkpt>
      <trkpt lat="57.735273105281" lon="12.917346676733">
        <ele>244.8</ele>
        <time>2019-11-09T10:43:08Z</time>
      </trkpt>
      <trkpt lat="57.735245445011" lon="12.917410462992">
        <ele>243.4</ele>
        <time>2019-11-09T10:43:10Z</time>
      </trkpt>
      <trkpt lat="57.735236141102" lon="12.917455306157">
        <ele>242.8</ele>
        <time>2019-11-09T10:43:11Z</time>
      </trkpt>
      <trkpt lat="57.735229016487" lon="12.9175053461">
        <ele>242.2</ele>
        <time>2019-11-09T10:43:12Z</time>
      </trkpt>
      <trkpt lat="57.735224741718" lon="12.917637612482">
        <ele>241</ele>
        <time>2019-11-09T10:43:15Z</time>
      </trkpt>
      <trkpt lat="57.735219712578" lon="12.917717324351">
        <ele>240.2</ele>
        <time>2019-11-09T10:43:17Z</time>
      </trkpt>
      <trkpt lat="57.735216275999" lon="12.917767448113">
        <ele>239.8</ele>
        <time>2019-11-09T10:43:18Z</time>
      </trkpt>
      <trkpt lat="57.735235051455" lon="12.91787917884">
        <ele>238.8</ele>
        <time>2019-11-09T10:43:22Z</time>
      </trkpt>
      <trkpt lat="57.73524552883" lon="12.917933158276">
        <ele>238.8</ele>
        <time>2019-11-09T10:43:24Z</time>
      </trkpt>
      <trkpt lat="57.735281068086" lon="12.918205402388">
        <ele>238.4</ele>
        <time>2019-11-09T10:43:31Z</time>
      </trkpt>
      <trkpt lat="57.735297580429" lon="12.918318138943">
        <ele>238.2</ele>
        <time>2019-11-09T10:43:35Z</time>
      </trkpt>
      <trkpt lat="57.735306549062" lon="12.918428109471">
        <ele>237.6</ele>
        <time>2019-11-09T10:43:41Z</time>
      </trkpt>
      <trkpt lat="57.73529582023" lon="12.918444789452">
        <ele>237</ele>
        <time>2019-11-09T10:43:42Z</time>
      </trkpt>
      <trkpt lat="57.73528660014" lon="12.918463145813">
        <ele>236.2</ele>
        <time>2019-11-09T10:43:43Z</time>
      </trkpt>
      <trkpt lat="57.735274614023" lon="12.918505725865">
        <ele>234.8</ele>
        <time>2019-11-09T10:43:45Z</time>
      </trkpt>
      <trkpt lat="57.735261957354" lon="12.918563309518">
        <ele>233.8</ele>
        <time>2019-11-09T10:43:47Z</time>
      </trkpt>
      <trkpt lat="57.735250138875" lon="12.918614103832">
        <ele>233.2</ele>
        <time>2019-11-09T10:43:49Z</time>
      </trkpt>
      <trkpt lat="57.735247875762" lon="12.918628269243">
        <ele>232.8</ele>
        <time>2019-11-09T10:43:51Z</time>
      </trkpt>
      <trkpt lat="57.735251982893" lon="12.918654001676">
        <ele>232.6</ele>
        <time>2019-11-09T10:43:53Z</time>
      </trkpt>
      <trkpt lat="57.735245109735" lon="12.918739329418">
        <ele>232.4</ele>
        <time>2019-11-09T10:43:55Z</time>
      </trkpt>
      <trkpt lat="57.735240667328" lon="12.918774617217">
        <ele>232.4</ele>
        <time>2019-11-09T10:43:58Z</time>
      </trkpt>
      <trkpt lat="57.735271764177" lon="12.91882046621">
        <ele>232.8</ele>
        <time>2019-11-09T10:44:01Z</time>
      </trkpt>
      <trkpt lat="57.73530001118" lon="12.918875367655">
        <ele>233.8</ele>
        <time>2019-11-09T10:44:05Z</time>
      </trkpt>
      <trkpt lat="57.735306884338" lon="12.918881821718">
        <ele>233.6</ele>
        <time>2019-11-09T10:44:06Z</time>
      </trkpt>
      <trkpt lat="57.7353234805" lon="12.918929347091">
        <ele>233.2</ele>
        <time>2019-11-09T10:44:09Z</time>
      </trkpt>
      <trkpt lat="57.735326497984" lon="12.918985422002">
        <ele>232.8</ele>
        <time>2019-11-09T10:44:11Z</time>
      </trkpt>
      <trkpt lat="57.735329766925" lon="12.91900654439">
        <ele>232.6</ele>
        <time>2019-11-09T10:44:12Z</time>
      </trkpt>
      <trkpt lat="57.735321049749" lon="12.919083993146">
        <ele>231.8</ele>
        <time>2019-11-09T10:44:14Z</time>
      </trkpt>
      <trkpt lat="57.735332449133" lon="12.919092207408">
        <ele>231.4</ele>
        <time>2019-11-09T10:44:15Z</time>
      </trkpt>
      <trkpt lat="57.735345357259" lon="12.919099080566">
        <ele>231.2</ele>
        <time>2019-11-09T10:44:16Z</time>
      </trkpt>
      <trkpt lat="57.735340076662" lon="12.919163872653">
        <ele>230.2</ele>
        <time>2019-11-09T10:44:20Z</time>
      </trkpt>
      <trkpt lat="57.735342842689" lon="12.919300916718">
        <ele>229</ele>
        <time>2019-11-09T10:44:24Z</time>
      </trkpt>
      <trkpt lat="57.735380728877" lon="12.919405439011">
        <ele>227.8</ele>
        <time>2019-11-09T10:44:27Z</time>
      </trkpt>
      <trkpt lat="57.735383913999" lon="12.919450617452">
        <ele>227</ele>
        <time>2019-11-09T10:44:29Z</time>
      </trkpt>
      <trkpt lat="57.735382824352" lon="12.919468470899">
        <ele>226.6</ele>
        <time>2019-11-09T10:44:30Z</time>
      </trkpt>
      <trkpt lat="57.735382908171" lon="12.919477271894">
        <ele>226.2</ele>
        <time>2019-11-09T10:44:31Z</time>
      </trkpt>
      <trkpt lat="57.735378046669" lon="12.919499651567">
        <ele>225.2</ele>
        <time>2019-11-09T10:44:33Z</time>
      </trkpt>
      <trkpt lat="57.735400929256" lon="12.919675922924">
        <ele>225.6</ele>
        <time>2019-11-09T10:44:43Z</time>
      </trkpt>
      <trkpt lat="57.735437641978" lon="12.919780445217">
        <ele>226</ele>
        <time>2019-11-09T10:44:47Z</time>
      </trkpt>
      <trkpt lat="57.735443006394" lon="12.919802657252">
        <ele>226.2</ele>
        <time>2019-11-09T10:44:48Z</time>
      </trkpt>
      <trkpt lat="57.735448706086" lon="12.919851356091">
        <ele>227.2</ele>
        <time>2019-11-09T10:44:50Z</time>
      </trkpt>
      <trkpt lat="57.735454573416" lon="12.91989334941">
        <ele>228</ele>
        <time>2019-11-09T10:44:52Z</time>
      </trkpt>
      <trkpt lat="57.73546429642" lon="12.919906592812">
        <ele>228.4</ele>
        <time>2019-11-09T10:44:53Z</time>
      </trkpt>
      <trkpt lat="57.735509977775" lon="12.919945401009">
        <ele>229.4</ele>
        <time>2019-11-09T10:44:57Z</time>
      </trkpt>
      <trkpt lat="57.735566387962" lon="12.920146147514">
        <ele>228.2</ele>
        <time>2019-11-09T10:45:11Z</time>
      </trkpt>
      <trkpt lat="57.735589605825" lon="12.92021186161">
        <ele>228</ele>
        <time>2019-11-09T10:45:14Z</time>
      </trkpt>
      <trkpt lat="57.73574425188" lon="12.920388887338">
        <ele>227.6</ele>
        <time>2019-11-09T10:45:24Z</time>
      </trkpt>
      <trkpt lat="57.735808457234" lon="12.920488715767">
        <ele>228</ele>
        <time>2019-11-09T10:45:29Z</time>
      </trkpt>
      <trkpt lat="57.735962684194" lon="12.920615450095">
        <ele>227.4</ele>
        <time>2019-11-09T10:45:36Z</time>
      </trkpt>
      <trkpt lat="57.735996714708" lon="12.920638165044">
        <ele>227.2</ele>
        <time>2019-11-09T10:45:38Z</time>
      </trkpt>
      <trkpt lat="57.736014400517" lon="12.92066280783">
        <ele>227</ele>
        <time>2019-11-09T10:45:39Z</time>
      </trkpt>
      <trkpt lat="57.73606695503" lon="12.920702454217">
        <ele>226</ele>
        <time>2019-11-09T10:45:42Z</time>
      </trkpt>
      <trkpt lat="57.736083551192" lon="12.920718882741">
        <ele>225.2</ele>
        <time>2019-11-09T10:45:44Z</time>
      </trkpt>
      <trkpt lat="57.736090759626" lon="12.920757858576">
        <ele>225</ele>
        <time>2019-11-09T10:45:46Z</time>
      </trkpt>
      <trkpt lat="57.736130489832" lon="12.920863638154">
        <ele>224.4</ele>
        <time>2019-11-09T10:45:49Z</time>
      </trkpt>
      <trkpt lat="57.736141386302" lon="12.920897333392">
        <ele>223.8</ele>
        <time>2019-11-09T10:45:50Z</time>
      </trkpt>
      <trkpt lat="57.736164604165" lon="12.920980146564">
        <ele>222.6</ele>
        <time>2019-11-09T10:45:53Z</time>
      </trkpt>
      <trkpt lat="57.736193186444" lon="12.921014428535">
        <ele>222</ele>
        <time>2019-11-09T10:45:55Z</time>
      </trkpt>
      <trkpt lat="57.736365937403" lon="12.921213750117">
        <ele>221.6</ele>
        <time>2019-11-09T10:46:07Z</time>
      </trkpt>
      <trkpt lat="57.736375073674" lon="12.921277117281">
        <ele>220.6</ele>
        <time>2019-11-09T10:46:10Z</time>
      </trkpt>
      <trkpt lat="57.736372307647" lon="12.921301927705">
        <ele>220.2</ele>
        <time>2019-11-09T10:46:11Z</time>
      </trkpt>
      <trkpt lat="57.736384545221" lon="12.921348782526">
        <ele>219</ele>
        <time>2019-11-09T10:46:13Z</time>
      </trkpt>
      <trkpt lat="57.736405919066" lon="12.921413909889">
        <ele>218</ele>
        <time>2019-11-09T10:46:16Z</time>
      </trkpt>
      <trkpt lat="57.736405332333" lon="12.921474930121">
        <ele>217.6</ele>
        <time>2019-11-09T10:46:17Z</time>
      </trkpt>
      <trkpt lat="57.736401141383" lon="12.921657487903">
        <ele>216.4</ele>
        <time>2019-11-09T10:46:21Z</time>
      </trkpt>
      <trkpt lat="57.736415893527" lon="12.921726806216">
        <ele>215.2</ele>
        <time>2019-11-09T10:46:23Z</time>
      </trkpt>
      <trkpt lat="57.736393932949" lon="12.921905256867">
        <ele>214</ele>
        <time>2019-11-09T10:46:27Z</time>
      </trkpt>
      <trkpt lat="57.736390831646" lon="12.921948004557">
        <ele>213.8</ele>
        <time>2019-11-09T10:46:28Z</time>
      </trkpt>
      <trkpt lat="57.736405667609" lon="12.922032577928">
        <ele>213</ele>
        <time>2019-11-09T10:46:31Z</time>
      </trkpt>
      <trkpt lat="57.736390244913" lon="12.922063339501">
        <ele>212.8</ele>
        <time>2019-11-09T10:46:32Z</time>
      </trkpt>
      <trkpt lat="57.736383036479" lon="12.92211120015">
        <ele>212.2</ele>
        <time>2019-11-09T10:46:34Z</time>
      </trkpt>
      <trkpt lat="57.736373313475" lon="12.92212293481">
        <ele>211.6</ele>
        <time>2019-11-09T10:46:35Z</time>
      </trkpt>
      <trkpt lat="57.736360070073" lon="12.922143721922">
        <ele>211.2</ele>
        <time>2019-11-09T10:46:36Z</time>
      </trkpt>
      <trkpt lat="57.736350347069" lon="12.922170041088">
        <ele>210.4</ele>
        <time>2019-11-09T10:46:37Z</time>
      </trkpt>
      <trkpt lat="57.736303911343" lon="12.922255620287">
        <ele>209.2</ele>
        <time>2019-11-09T10:46:39Z</time>
      </trkpt>
      <trkpt lat="57.736292092864" lon="12.922277916141">
        <ele>208.6</ele>
        <time>2019-11-09T10:46:40Z</time>
      </trkpt>
      <trkpt lat="57.736280609661" lon="12.922295015217">
        <ele>208</ele>
        <time>2019-11-09T10:46:41Z</time>
      </trkpt>
      <trkpt lat="57.7362790171" lon="12.922306917515">
        <ele>207.4</ele>
        <time>2019-11-09T10:46:43Z</time>
      </trkpt>
      <trkpt lat="57.736280609661" lon="12.922340948029">
        <ele>207.2</ele>
        <time>2019-11-09T10:46:47Z</time>
      </trkpt>
      <trkpt lat="57.736276251073" lon="12.922356035449">
        <ele>207.2</ele>
        <time>2019-11-09T10:46:49Z</time>
      </trkpt>
      <trkpt lat="57.73627566434" lon="12.922379169493">
        <ele>207</ele>
        <time>2019-11-09T10:46:51Z</time>
      </trkpt>
      <trkpt lat="57.736259487273" lon="12.922436166413">
        <ele>207</ele>
        <time>2019-11-09T10:46:52Z</time>
      </trkpt>
      <trkpt lat="57.736244399853" lon="12.922423342106">
        <ele>207.2</ele>
        <time>2019-11-09T10:46:56Z</time>
      </trkpt>
      <trkpt lat="57.736237442876" lon="12.922449996548">
        <ele>207.4</ele>
        <time>2019-11-09T10:46:57Z</time>
      </trkpt>
      <trkpt lat="57.736325536645" lon="12.922504814174">
        <ele>207</ele>
        <time>2019-11-09T10:47:13Z</time>
      </trkpt>
      <trkpt lat="57.736326877749" lon="12.922543873828">
        <ele>206.8</ele>
        <time>2019-11-09T10:47:16Z</time>
      </trkpt>
      <trkpt lat="57.736322686799" lon="12.922585950966">
        <ele>206.8</ele>
        <time>2019-11-09T10:47:18Z</time>
      </trkpt>
      <trkpt lat="57.736349257422" lon="12.922607660087">
        <ele>206.8</ele>
        <time>2019-11-09T10:47:21Z</time>
      </trkpt>
      <trkpt lat="57.736379264624" lon="12.922613611236">
        <ele>206.8</ele>
        <time>2019-11-09T10:47:23Z</time>
      </trkpt>
      <trkpt lat="57.73642486216" lon="12.922644791904">
        <ele>207.2</ele>
        <time>2019-11-09T10:47:26Z</time>
      </trkpt>
      <trkpt lat="57.736484708926" lon="12.922736657528">
        <ele>208</ele>
        <time>2019-11-09T10:47:30Z</time>
      </trkpt>
      <trkpt lat="57.73657825093" lon="12.92284210183">
        <ele>208.2</ele>
        <time>2019-11-09T10:47:35Z</time>
      </trkpt>
      <trkpt lat="57.736724012171" lon="12.923045446724">
        <ele>208.2</ele>
        <time>2019-11-09T10:47:43Z</time>
      </trkpt>
      <trkpt lat="57.736737842306" lon="12.923064641275">
        <ele>208.4</ele>
        <time>2019-11-09T10:47:44Z</time>
      </trkpt>
      <trkpt lat="57.736756114848" lon="12.923133121398">
        <ele>209</ele>
        <time>2019-11-09T10:47:47Z</time>
      </trkpt>
      <trkpt lat="57.736762988006" lon="12.923151142483">
        <ele>209</ele>
        <time>2019-11-09T10:47:48Z</time>
      </trkpt>
      <trkpt lat="57.736780925272" lon="12.923196991476">
        <ele>209.4</ele>
        <time>2019-11-09T10:47:50Z</time>
      </trkpt>
      <trkpt lat="57.736824343514" lon="12.923292628955">
        <ele>209.6</ele>
        <time>2019-11-09T10:47:54Z</time>
      </trkpt>
      <trkpt lat="57.736922914658" lon="12.923437384368">
        <ele>208</ele>
        <time>2019-11-09T10:47:59Z</time>
      </trkpt>
      <trkpt lat="57.736944707598" lon="12.923451717417">
        <ele>207.6</ele>
        <time>2019-11-09T10:48:00Z</time>
      </trkpt>
      <trkpt lat="57.736996759197" lon="12.923507037957">
        <ele>206.8</ele>
        <time>2019-11-09T10:48:03Z</time>
      </trkpt>
      <trkpt lat="57.737145286465" lon="12.923734103628">
        <ele>206</ele>
        <time>2019-11-09T10:48:11Z</time>
      </trkpt>
      <trkpt lat="57.737149309777" lon="12.923796381145">
        <ele>206</ele>
        <time>2019-11-09T10:48:13Z</time>
      </trkpt>
      <trkpt lat="57.737296328303" lon="12.924022524807">
        <ele>206</ele>
        <time>2019-11-09T10:48:25Z</time>
      </trkpt>
      <trkpt lat="57.737303788194" lon="12.92410441597">
        <ele>205.8</ele>
        <time>2019-11-09T10:48:27Z</time>
      </trkpt>
      <trkpt lat="57.737303369099" lon="12.924143475624">
        <ele>205.8</ele>
        <time>2019-11-09T10:48:28Z</time>
      </trkpt>
      <trkpt lat="57.737302363271" lon="12.924284040087">
        <ele>204.8</ele>
        <time>2019-11-09T10:48:31Z</time>
      </trkpt>
      <trkpt lat="57.73730496166" lon="12.924320249895">
        <ele>204.2</ele>
        <time>2019-11-09T10:48:32Z</time>
      </trkpt>
      <trkpt lat="57.737309068791" lon="12.924372133856">
        <ele>203.4</ele>
        <time>2019-11-09T10:48:34Z</time>
      </trkpt>
      <trkpt lat="57.737319965261" lon="12.924426783844">
        <ele>202.2</ele>
        <time>2019-11-09T10:48:36Z</time>
      </trkpt>
      <trkpt lat="57.737324072392" lon="12.924503310591">
        <ele>201.2</ele>
        <time>2019-11-09T10:48:38Z</time>
      </trkpt>
      <trkpt lat="57.737304374927" lon="12.924603222839">
        <ele>200</ele>
        <time>2019-11-09T10:48:40Z</time>
      </trkpt>
      <trkpt lat="57.737304542565" lon="12.924682347975">
        <ele>198.8</ele>
        <time>2019-11-09T10:48:42Z</time>
      </trkpt>
      <trkpt lat="57.737300435434" lon="12.924730962995">
        <ele>197.8</ele>
        <time>2019-11-09T10:48:44Z</time>
      </trkpt>
      <trkpt lat="57.737312924465" lon="12.924797180005">
        <ele>196.6</ele>
        <time>2019-11-09T10:48:47Z</time>
      </trkpt>
      <trkpt lat="57.737335220319" lon="12.924853087278">
        <ele>196</ele>
        <time>2019-11-09T10:48:51Z</time>
      </trkpt>
      <trkpt lat="57.737368161186" lon="12.924937744468">
        <ele>195.8</ele>
        <time>2019-11-09T10:48:54Z</time>
      </trkpt>
      <trkpt lat="57.737400766777" lon="12.925005218763">
        <ele>195.8</ele>
        <time>2019-11-09T10:48:57Z</time>
      </trkpt>
      <trkpt lat="57.737431025436" lon="12.925046290073">
        <ele>196</ele>
        <time>2019-11-09T10:49:01Z</time>
      </trkpt>
      <trkpt lat="57.737552730624" lon="12.92503732144">
        <ele>197.6</ele>
        <time>2019-11-09T10:49:08Z</time>
      </trkpt>
      <trkpt lat="57.73761341558" lon="12.924989628429">
        <ele>198.6</ele>
        <time>2019-11-09T10:49:11Z</time>
      </trkpt>
      <trkpt lat="57.737629676466" lon="12.924926261265">
        <ele>200.2</ele>
        <time>2019-11-09T10:49:13Z</time>
      </trkpt>
      <trkpt lat="57.737654905985" lon="12.924867671784">
        <ele>201.4</ele>
        <time>2019-11-09T10:49:15Z</time>
      </trkpt>
      <trkpt lat="57.7376955582" lon="12.924784858612">
        <ele>202.8</ele>
        <time>2019-11-09T10:49:18Z</time>
      </trkpt>
      <trkpt lat="57.737713746923" lon="12.924653849515">
        <ele>204.2</ele>
        <time>2019-11-09T10:49:21Z</time>
      </trkpt>
      <trkpt lat="57.737746771609" lon="12.924577238949">
        <ele>205.4</ele>
        <time>2019-11-09T10:49:23Z</time>
      </trkpt>
      <trkpt lat="57.737750543464" lon="12.924467771335">
        <ele>206.2</ele>
        <time>2019-11-09T10:49:25Z</time>
      </trkpt>
      <trkpt lat="57.737747023066" lon="12.924452013363">
        <ele>206.4</ele>
        <time>2019-11-09T10:49:27Z</time>
      </trkpt>
      <trkpt lat="57.737746017238" lon="12.92450842355">
        <ele>206</ele>
        <time>2019-11-09T10:49:33Z</time>
      </trkpt>
      <trkpt lat="57.737747861256" lon="12.924559217864">
        <ele>205.4</ele>
        <time>2019-11-09T10:49:35Z</time>
      </trkpt>
      <trkpt lat="57.7377793772" lon="12.924674888084">
        <ele>204</ele>
        <time>2019-11-09T10:49:39Z</time>
      </trkpt>
      <trkpt lat="57.737802511244" lon="12.924744457854">
        <ele>203</ele>
        <time>2019-11-09T10:49:41Z</time>
      </trkpt>
      <trkpt lat="57.737792704421" lon="12.924817128927">
        <ele>201.8</ele>
        <time>2019-11-09T10:49:43Z</time>
      </trkpt>
      <trkpt lat="57.737786417996" lon="12.924876975693">
        <ele>200</ele>
        <time>2019-11-09T10:49:45Z</time>
      </trkpt>
      <trkpt lat="57.737777114087" lon="12.924978899597">
        <ele>198.6</ele>
        <time>2019-11-09T10:49:47Z</time>
      </trkpt>
      <trkpt lat="57.737773090775" lon="12.925082667519">
        <ele>197.2</ele>
        <time>2019-11-09T10:49:49Z</time>
      </trkpt>
      <trkpt lat="57.737760517925" lon="12.92518484288">
        <ele>196.2</ele>
        <time>2019-11-09T10:49:51Z</time>
      </trkpt>
      <trkpt lat="57.73775674607" lon="12.925228344941">
        <ele>195.8</ele>
        <time>2019-11-09T10:49:52Z</time>
      </trkpt>
      <trkpt lat="57.73774668779" lon="12.925295735417">
        <ele>194.8</ele>
        <time>2019-11-09T10:49:54Z</time>
      </trkpt>
      <trkpt lat="57.737749034722" lon="12.925372094526">
        <ele>193.6</ele>
        <time>2019-11-09T10:49:56Z</time>
      </trkpt>
      <trkpt lat="57.737762278124" lon="12.925424229944">
        <ele>192.4</ele>
        <time>2019-11-09T10:49:58Z</time>
      </trkpt>
      <trkpt lat="57.737768313092" lon="12.925448788911">
        <ele>191.8</ele>
        <time>2019-11-09T10:49:59Z</time>
      </trkpt>
      <trkpt lat="57.73777518625" lon="12.925474437525">
        <ele>191.2</ele>
        <time>2019-11-09T10:50:00Z</time>
      </trkpt>
      <trkpt lat="57.737790106032" lon="12.925522130536">
        <ele>189.6</ele>
        <time>2019-11-09T10:50:02Z</time>
      </trkpt>
      <trkpt lat="57.737792201507" lon="12.925542079458">
        <ele>188.6</ele>
        <time>2019-11-09T10:50:03Z</time>
      </trkpt>
      <trkpt lat="57.737791530955" lon="12.925563369484">
        <ele>187.6</ele>
        <time>2019-11-09T10:50:04Z</time>
      </trkpt>
      <trkpt lat="57.73778859729" lon="12.925582061121">
        <ele>186.6</ele>
        <time>2019-11-09T10:50:05Z</time>
      </trkpt>
      <trkpt lat="57.737783651969" lon="12.925614666712">
        <ele>186</ele>
        <time>2019-11-09T10:50:06Z</time>
      </trkpt>
      <trkpt lat="57.737780802123" lon="12.925649786873">
        <ele>184.8</ele>
        <time>2019-11-09T10:50:07Z</time>
      </trkpt>
      <trkpt lat="57.73778105358" lon="12.925664706655">
        <ele>183.6</ele>
        <time>2019-11-09T10:50:08Z</time>
      </trkpt>
      <trkpt lat="57.737782646141" lon="12.925673675288">
        <ele>182.4</ele>
        <time>2019-11-09T10:50:09Z</time>
      </trkpt>
      <trkpt lat="57.737784238702" lon="12.925705275051">
        <ele>181</ele>
        <time>2019-11-09T10:50:11Z</time>
      </trkpt>
      <trkpt lat="57.737795386629" lon="12.925761182324">
        <ele>179.2</ele>
        <time>2019-11-09T10:50:14Z</time>
      </trkpt>
      <trkpt lat="57.737826232021" lon="12.925779035771">
        <ele>178.2</ele>
        <time>2019-11-09T10:50:16Z</time>
      </trkpt>
      <trkpt lat="57.737860765449" lon="12.925788674956">
        <ele>177.2</ele>
        <time>2019-11-09T10:50:18Z</time>
      </trkpt>
      <trkpt lat="57.737869650263" lon="12.925803008005">
        <ele>177</ele>
        <time>2019-11-09T10:50:19Z</time>
      </trkpt>
      <trkpt lat="57.737888006624" lon="12.925816251407">
        <ele>176.8</ele>
        <time>2019-11-09T10:50:21Z</time>
      </trkpt>
      <trkpt lat="57.737931843961" lon="12.925818263063">
        <ele>175.6</ele>
        <time>2019-11-09T10:50:24Z</time>
      </trkpt>
      <trkpt lat="57.737968221407" lon="12.925857322717">
        <ele>174.4</ele>
        <time>2019-11-09T10:50:27Z</time>
      </trkpt>
      <trkpt lat="57.737982470637" lon="12.925859166735">
        <ele>174.2</ele>
        <time>2019-11-09T10:50:28Z</time>
      </trkpt>
      <trkpt lat="57.738000994636" lon="12.925872745413">
        <ele>173.6</ele>
        <time>2019-11-09T10:50:30Z</time>
      </trkpt>
      <trkpt lat="57.738009963269" lon="12.925888503385">
        <ele>173.2</ele>
        <time>2019-11-09T10:50:31Z</time>
      </trkpt>
      <trkpt lat="57.738038126453" lon="12.925921779528">
        <ele>171.8</ele>
        <time>2019-11-09T10:50:33Z</time>
      </trkpt>
      <trkpt lat="57.738072408424" lon="12.925957905517">
        <ele>170</ele>
        <time>2019-11-09T10:50:35Z</time>
      </trkpt>
      <trkpt lat="57.738095710106" lon="12.925974250222">
        <ele>169.2</ele>
        <time>2019-11-09T10:50:36Z</time>
      </trkpt>
      <trkpt lat="57.738115407571" lon="12.925988918547">
        <ele>168.6</ele>
        <time>2019-11-09T10:50:37Z</time>
      </trkpt>
      <trkpt lat="57.738167040075" lon="12.926040970146">
        <ele>167.4</ele>
        <time>2019-11-09T10:50:41Z</time>
      </trkpt>
      <trkpt lat="57.738189755024" lon="12.926064439466">
        <ele>166</ele>
        <time>2019-11-09T10:50:44Z</time>
      </trkpt>
      <trkpt lat="57.738198723657" lon="12.926070977348">
        <ele>165.4</ele>
        <time>2019-11-09T10:50:45Z</time>
      </trkpt>
      <trkpt lat="57.738244907926" lon="12.926099727265">
        <ele>164.6</ele>
        <time>2019-11-09T10:50:47Z</time>
      </trkpt>
      <trkpt lat="57.738279944268" lon="12.926111210468">
        <ele>163.6</ele>
        <time>2019-11-09T10:50:49Z</time>
      </trkpt>
      <trkpt lat="57.738359656137" lon="12.926174158537">
        <ele>163</ele>
        <time>2019-11-09T10:50:54Z</time>
      </trkpt>
      <trkpt lat="57.738454203969" lon="12.926267700541">
        <ele>163</ele>
        <time>2019-11-09T10:50:58Z</time>
      </trkpt>
      <trkpt lat="57.738589823111" lon="12.926247081067">
        <ele>164</ele>
        <time>2019-11-09T10:51:02Z</time>
      </trkpt>
      <trkpt lat="57.738669032066" lon="12.92620240554">
        <ele>164.2</ele>
        <time>2019-11-09T10:51:06Z</time>
      </trkpt>
      <trkpt lat="57.738735500533" lon="12.926118754178">
        <ele>164.8</ele>
        <time>2019-11-09T10:51:11Z</time>
      </trkpt>
      <trkpt lat="57.738748911573" lon="12.926107187156">
        <ele>165.4</ele>
        <time>2019-11-09T10:51:12Z</time>
      </trkpt>
      <trkpt lat="57.738766010649" lon="12.926097464152">
        <ele>166</ele>
        <time>2019-11-09T10:51:13Z</time>
      </trkpt>
      <trkpt lat="57.738934738296" lon="12.925966538874">
        <ele>166.4</ele>
        <time>2019-11-09T10:51:23Z</time>
      </trkpt>
      <trkpt lat="57.739095838414" lon="12.92591742094">
        <ele>167.2</ele>
        <time>2019-11-09T10:51:29Z</time>
      </trkpt>
      <trkpt lat="57.73917663993" lon="12.925937872776">
        <ele>165.8</ele>
        <time>2019-11-09T10:51:32Z</time>
      </trkpt>
      <trkpt lat="57.739212011548" lon="12.925955810042">
        <ele>164.4</ele>
        <time>2019-11-09T10:51:34Z</time>
      </trkpt>
      <trkpt lat="57.739246544976" lon="12.925954049843">
        <ele>163.2</ele>
        <time>2019-11-09T10:51:36Z</time>
      </trkpt>
      <trkpt lat="57.739316450022" lon="12.925966957969">
        <ele>162.6</ele>
        <time>2019-11-09T10:51:39Z</time>
      </trkpt>
      <trkpt lat="57.739330615433" lon="12.925959833354">
        <ele>162.2</ele>
        <time>2019-11-09T10:51:40Z</time>
      </trkpt>
      <trkpt lat="57.739368836897" lon="12.92594508121">
        <ele>160.8</ele>
        <time>2019-11-09T10:51:42Z</time>
      </trkpt>
      <trkpt lat="57.739402615954" lon="12.925978441172">
        <ele>159.4</ele>
        <time>2019-11-09T10:51:45Z</time>
      </trkpt>
      <trkpt lat="57.739477298683" lon="12.926035102816">
        <ele>157.8</ele>
        <time>2019-11-09T10:51:48Z</time>
      </trkpt>
      <trkpt lat="57.739505042772" lon="12.926079275429">
        <ele>156.4</ele>
        <time>2019-11-09T10:51:50Z</time>
      </trkpt>
      <trkpt lat="57.739519627278" lon="12.926088830795">
        <ele>155.6</ele>
        <time>2019-11-09T10:51:51Z</time>
      </trkpt>
      <trkpt lat="57.739539743838" lon="12.92609846998">
        <ele>155</ele>
        <time>2019-11-09T10:51:52Z</time>
      </trkpt>
      <trkpt lat="57.739572349429" lon="12.926112216296">
        <ele>153.4</ele>
        <time>2019-11-09T10:51:54Z</time>
      </trkpt>
      <trkpt lat="57.739598584776" lon="12.926138200186">
        <ele>152</ele>
        <time>2019-11-09T10:51:56Z</time>
      </trkpt>
      <trkpt lat="57.739614426567" lon="12.926160747497">
        <ele>151.4</ele>
        <time>2019-11-09T10:51:57Z</time>
      </trkpt>
      <trkpt lat="57.739637895887" lon="12.92619402364">
        <ele>150.8</ele>
        <time>2019-11-09T10:51:58Z</time>
      </trkpt>
      <trkpt lat="57.739683074328" lon="12.92628035721">
        <ele>149.2</ele>
        <time>2019-11-09T10:52:00Z</time>
      </trkpt>
      <trkpt lat="57.739714506453" lon="12.926341209804">
        <ele>147.6</ele>
        <time>2019-11-09T10:52:02Z</time>
      </trkpt>
      <trkpt lat="57.739732024624" lon="12.926381023829">
        <ele>147.2</ele>
        <time>2019-11-09T10:52:04Z</time>
      </trkpt>
      <trkpt lat="57.739757086505" lon="12.926477080403">
        <ele>147.4</ele>
        <time>2019-11-09T10:52:07Z</time>
      </trkpt>
      <trkpt lat="57.739800169471" lon="12.926553523331">
        <ele>148.2</ele>
        <time>2019-11-09T10:52:10Z</time>
      </trkpt>
      <trkpt lat="57.739839815858" lon="12.926591158062">
        <ele>149.2</ele>
        <time>2019-11-09T10:52:12Z</time>
      </trkpt>
      <trkpt lat="57.739887257412" lon="12.926662320393">
        <ele>150.2</ele>
        <time>2019-11-09T10:52:15Z</time>
      </trkpt>
      <trkpt lat="57.73991592351" lon="12.926679922383">
        <ele>150.4</ele>
        <time>2019-11-09T10:52:16Z</time>
      </trkpt>
      <trkpt lat="57.739942075038" lon="12.926742283719">
        <ele>150.6</ele>
        <time>2019-11-09T10:52:20Z</time>
      </trkpt>
      <trkpt lat="57.739943332323" lon="12.926811266756">
        <ele>150.4</ele>
        <time>2019-11-09T10:52:25Z</time>
      </trkpt>
      <trkpt lat="57.73993604007" lon="12.926918471257">
        <ele>149.2</ele>
        <time>2019-11-09T10:52:29Z</time>
      </trkpt>
      <trkpt lat="57.739928747817" lon="12.926943952233">
        <ele>148.6</ele>
        <time>2019-11-09T10:52:30Z</time>
      </trkpt>
      <trkpt lat="57.739931597663" lon="12.926967840648">
        <ele>148</ele>
        <time>2019-11-09T10:52:31Z</time>
      </trkpt>
      <trkpt lat="57.739933609319" lon="12.927001368248">
        <ele>146.8</ele>
        <time>2019-11-09T10:52:34Z</time>
      </trkpt>
      <trkpt lat="57.739898237701" lon="12.9270607121">
        <ele>146.2</ele>
        <time>2019-11-09T10:52:39Z</time>
      </trkpt>
      <trkpt lat="57.739867559947" lon="12.927094658795">
        <ele>145.8</ele>
        <time>2019-11-09T10:52:41Z</time>
      </trkpt>
      <trkpt lat="57.739860183875" lon="12.927098765926">
        <ele>145.6</ele>
        <time>2019-11-09T10:52:42Z</time>
      </trkpt>
      <trkpt lat="57.739867140852" lon="12.9271277673">
        <ele>145</ele>
        <time>2019-11-09T10:52:47Z</time>
      </trkpt>
      <trkpt lat="57.739857836943" lon="12.927147297127">
        <ele>144.8</ele>
        <time>2019-11-09T10:52:49Z</time>
      </trkpt>
      <trkpt lat="57.739857501667" lon="12.927183004021">
        <ele>144.8</ele>
        <time>2019-11-09T10:52:52Z</time>
      </trkpt>
      <trkpt lat="57.739881809177" lon="12.927197588527">
        <ele>145</ele>
        <time>2019-11-09T10:52:56Z</time>
      </trkpt>
      <trkpt lat="57.739887341231" lon="12.927209490825">
        <ele>144.6</ele>
        <time>2019-11-09T10:52:57Z</time>
      </trkpt>
      <trkpt lat="57.739918940994" lon="12.927236480543">
        <ele>143.4</ele>
        <time>2019-11-09T10:53:01Z</time>
      </trkpt>
      <trkpt lat="57.739985744737" lon="12.927192224111">
        <ele>144</ele>
        <time>2019-11-09T10:53:16Z</time>
      </trkpt>
      <trkpt lat="57.739986499108" lon="12.927175376492">
        <ele>144.6</ele>
        <time>2019-11-09T10:53:17Z</time>
      </trkpt>
      <trkpt lat="57.739991109153" lon="12.927159450882">
        <ele>145.4</ele>
        <time>2019-11-09T10:53:18Z</time>
      </trkpt>
      <trkpt lat="57.740000832157" lon="12.92714536929">
        <ele>146</ele>
        <time>2019-11-09T10:53:19Z</time>
      </trkpt>
      <trkpt lat="57.740008208229" lon="12.927126761472">
        <ele>146.6</ele>
        <time>2019-11-09T10:53:20Z</time>
      </trkpt>
      <trkpt lat="57.740014243197" lon="12.927104465618">
        <ele>147.6</ele>
        <time>2019-11-09T10:53:21Z</time>
      </trkpt>
      <trkpt lat="57.740040562363" lon="12.92705987391">
        <ele>148.8</ele>
        <time>2019-11-09T10:53:23Z</time>
      </trkpt>
      <trkpt lat="57.740050955919" lon="12.926959794024">
        <ele>150.2</ele>
        <time>2019-11-09T10:53:26Z</time>
      </trkpt>
      <trkpt lat="57.740063528769" lon="12.926909586443">
        <ele>150.8</ele>
        <time>2019-11-09T10:53:28Z</time>
      </trkpt>
      <trkpt lat="57.740052883756" lon="12.926839010845">
        <ele>150.4</ele>
        <time>2019-11-09T10:53:32Z</time>
      </trkpt>
      <trkpt lat="57.740003011451" lon="12.926876561757">
        <ele>150.6</ele>
        <time>2019-11-09T10:53:43Z</time>
      </trkpt>
      <trkpt lat="57.739880635711" lon="12.927051827286">
        <ele>148.4</ele>
        <time>2019-11-09T10:53:50Z</time>
      </trkpt>
      <trkpt lat="57.739857501667" lon="12.927053587485">
        <ele>147.2</ele>
        <time>2019-11-09T10:53:51Z</time>
      </trkpt>
      <trkpt lat="57.739806707353" lon="12.927083762325">
        <ele>145.8</ele>
        <time>2019-11-09T10:53:53Z</time>
      </trkpt>
      <trkpt lat="57.739747950234" lon="12.927137490304">
        <ele>144.8</ele>
        <time>2019-11-09T10:53:55Z</time>
      </trkpt>
      <trkpt lat="57.739639656086" lon="12.927333710583">
        <ele>143.6</ele>
        <time>2019-11-09T10:54:00Z</time>
      </trkpt>
      <trkpt lat="57.739622724648" lon="12.927411494615">
        <ele>142.8</ele>
        <time>2019-11-09T10:54:02Z</time>
      </trkpt>
      <trkpt lat="57.739623730476" lon="12.927445189853">
        <ele>142.4</ele>
        <time>2019-11-09T10:54:03Z</time>
      </trkpt>
      <trkpt lat="57.739613672196" lon="12.927560776254">
        <ele>141.6</ele>
        <time>2019-11-09T10:54:08Z</time>
      </trkpt>
      <trkpt lat="57.739607050495" lon="12.92766839985">
        <ele>141.6</ele>
        <time>2019-11-09T10:54:12Z</time>
      </trkpt>
      <trkpt lat="57.739606128486" lon="12.927708046237">
        <ele>141.4</ele>
        <time>2019-11-09T10:54:14Z</time>
      </trkpt>
      <trkpt lat="57.739604619744" lon="12.927741657656">
        <ele>141.2</ele>
        <time>2019-11-09T10:54:15Z</time>
      </trkpt>
      <trkpt lat="57.739615935309" lon="12.927901835765">
        <ele>140.2</ele>
        <time>2019-11-09T10:54:21Z</time>
      </trkpt>
      <trkpt lat="57.739595567292" lon="12.927972495182">
        <ele>140.2</ele>
        <time>2019-11-09T10:54:22Z</time>
      </trkpt>
      <trkpt lat="57.739407058361" lon="12.928147760711">
        <ele>140.2</ele>
        <time>2019-11-09T10:54:28Z</time>
      </trkpt>
      <trkpt lat="57.739266996812" lon="12.928422854669">
        <ele>140</ele>
        <time>2019-11-09T10:54:34Z</time>
      </trkpt>
      <trkpt lat="57.739244952415" lon="12.928507344221">
        <ele>138.8</ele>
        <time>2019-11-09T10:54:36Z</time>
      </trkpt>
      <trkpt lat="57.739241264379" lon="12.928570208471">
        <ele>137.6</ele>
        <time>2019-11-09T10:54:38Z</time>
      </trkpt>
      <trkpt lat="57.739236654334" lon="12.928589654479">
        <ele>137.2</ele>
        <time>2019-11-09T10:54:39Z</time>
      </trkpt>
      <trkpt lat="57.739258363455" lon="12.928715466798">
        <ele>136.6</ele>
        <time>2019-11-09T10:54:42Z</time>
      </trkpt>
      <trkpt lat="57.739271187762" lon="12.928771709347">
        <ele>136.2</ele>
        <time>2019-11-09T10:54:43Z</time>
      </trkpt>
      <trkpt lat="57.739290047037" lon="12.928959631545">
        <ele>135.4</ele>
        <time>2019-11-09T10:54:46Z</time>
      </trkpt>
      <trkpt lat="57.73930907395" lon="12.929035403921">
        <ele>135.4</ele>
        <time>2019-11-09T10:54:48Z</time>
      </trkpt>
      <trkpt lat="57.739465228747" lon="12.929123832966">
        <ele>135.6</ele>
        <time>2019-11-09T10:54:53Z</time>
      </trkpt>
      <trkpt lat="57.739478891244" lon="12.929499593543">
        <ele>134.2</ele>
        <time>2019-11-09T10:54:58Z</time>
      </trkpt>
      <trkpt lat="57.739469922611" lon="12.929841323606">
        <ele>133.2</ele>
        <time>2019-11-09T10:55:02Z</time>
      </trkpt>
      <trkpt lat="57.739463049453" lon="12.930019690438">
        <ele>132.8</ele>
        <time>2019-11-09T10:55:04Z</time>
      </trkpt>
      <trkpt lat="57.739438239029" lon="12.930384470726">
        <ele>132.4</ele>
        <time>2019-11-09T10:55:08Z</time>
      </trkpt>
      <trkpt lat="57.73943564064" lon="12.930475665798">
        <ele>132.4</ele>
        <time>2019-11-09T10:55:09Z</time>
      </trkpt>
      <trkpt lat="57.739437568477" lon="12.930706754781">
        <ele>131.8</ele>
        <time>2019-11-09T10:55:12Z</time>
      </trkpt>
      <trkpt lat="57.739409824388" lon="12.931093160371">
        <ele>132</ele>
        <time>2019-11-09T10:55:17Z</time>
      </trkpt>
      <trkpt lat="57.73940378942" lon="12.931180667407">
        <ele>132</ele>
        <time>2019-11-09T10:55:18Z</time>
      </trkpt>
      <trkpt lat="57.7393970839" lon="12.931522565108">
        <ele>132.2</ele>
        <time>2019-11-09T10:55:22Z</time>
      </trkpt>
      <trkpt lat="57.739378895177" lon="12.931921711186">
        <ele>131.8</ele>
        <time>2019-11-09T10:55:27Z</time>
      </trkpt>
      <trkpt lat="57.739328771415" lon="12.93229772322">
        <ele>133</ele>
        <time>2019-11-09T10:55:33Z</time>
      </trkpt>
      <trkpt lat="57.739316198565" lon="12.932353546674">
        <ele>133.2</ele>
        <time>2019-11-09T10:55:35Z</time>
      </trkpt>
      <trkpt lat="57.739296920195" lon="12.932370561931">
        <ele>133.2</ele>
        <time>2019-11-09T10:55:36Z</time>
      </trkpt>
      <trkpt lat="57.739134981887" lon="12.932548677306">
        <ele>132.8</ele>
        <time>2019-11-09T10:55:41Z</time>
      </trkpt>
      <trkpt lat="57.739101621925" lon="12.932589916254">
        <ele>132.8</ele>
        <time>2019-11-09T10:55:42Z</time>
      </trkpt>
      <trkpt lat="57.739027609748" lon="12.932647751364">
        <ele>132.6</ele>
        <time>2019-11-09T10:55:44Z</time>
      </trkpt>
      <trkpt lat="57.738952927019" lon="12.932657642006">
        <ele>132.6</ele>
        <time>2019-11-09T10:55:46Z</time>
      </trkpt>
      <trkpt lat="57.738772967626" lon="12.932706089388">
        <ele>132</ele>
        <time>2019-11-09T10:55:51Z</time>
      </trkpt>
      <trkpt lat="57.738621925788" lon="12.932897615803">
        <ele>132.6</ele>
        <time>2019-11-09T10:55:56Z</time>
      </trkpt>
      <trkpt lat="57.738477254194" lon="12.933114455556">
        <ele>133</ele>
        <time>2019-11-09T10:56:02Z</time>
      </trkpt>
      <trkpt lat="57.738321350854" lon="12.933324422151">
        <ele>133.6</ele>
        <time>2019-11-09T10:56:08Z</time>
      </trkpt>
      <trkpt lat="57.738253708921" lon="12.933401116536">
        <ele>134.2</ele>
        <time>2019-11-09T10:56:11Z</time>
      </trkpt>
      <trkpt lat="57.738223785538" lon="12.933440427647">
        <ele>135.2</ele>
        <time>2019-11-09T10:56:14Z</time>
      </trkpt>
      <trkpt lat="57.738202411693" lon="12.933509243046">
        <ele>136.6</ele>
        <time>2019-11-09T10:56:17Z</time>
      </trkpt>
      <trkpt lat="57.738166285704" lon="12.933596414806">
        <ele>137.8</ele>
        <time>2019-11-09T10:56:20Z</time>
      </trkpt>
      <trkpt lat="57.738143654574" lon="12.933638994858">
        <ele>138.8</ele>
        <time>2019-11-09T10:56:22Z</time>
      </trkpt>
      <trkpt lat="57.738117670684" lon="12.933670510802">
        <ele>140.2</ele>
        <time>2019-11-09T10:56:24Z</time>
      </trkpt>
      <trkpt lat="57.738095207192" lon="12.933711582112">
        <ele>141</ele>
        <time>2019-11-09T10:56:26Z</time>
      </trkpt>
      <trkpt lat="57.738081879971" lon="12.933723149134">
        <ele>141.6</ele>
        <time>2019-11-09T10:56:27Z</time>
      </trkpt>
      <trkpt lat="57.738053716787" lon="12.93375365925">
        <ele>142.8</ele>
        <time>2019-11-09T10:56:29Z</time>
      </trkpt>
      <trkpt lat="57.738031840028" lon="12.933782409167">
        <ele>144</ele>
        <time>2019-11-09T10:56:31Z</time>
      </trkpt>
      <trkpt lat="57.738002251921" lon="12.933811997274">
        <ele>145</ele>
        <time>2019-11-09T10:56:33Z</time>
      </trkpt>
      <trkpt lat="57.737810893144" lon="12.933900593957">
        <ele>145.4</ele>
        <time>2019-11-09T10:56:42Z</time>
      </trkpt>
      <trkpt lat="57.737792620602" lon="12.933899671948">
        <ele>145.4</ele>
        <time>2019-11-09T10:56:45Z</time>
      </trkpt>
      <trkpt lat="57.7377458496" lon="12.933875280619">
        <ele>145.4</ele>
        <time>2019-11-09T10:56:47Z</time>
      </trkpt>
      <trkpt lat="57.737639734746" lon="12.933756257639">
        <ele>143.8</ele>
        <time>2019-11-09T10:56:53Z</time>
      </trkpt>
      <trkpt lat="57.737581480541" lon="12.933723232953">
        <ele>142.6</ele>
        <time>2019-11-09T10:56:55Z</time>
      </trkpt>
      <trkpt lat="57.737505121432" lon="12.93371929346">
        <ele>141.4</ele>
        <time>2019-11-09T10:56:57Z</time>
      </trkpt>
      <trkpt lat="57.737433959101" lon="12.933717449442">
        <ele>140</ele>
        <time>2019-11-09T10:56:59Z</time>
      </trkpt>
      <trkpt lat="57.737355755974" lon="12.93372013165">
        <ele>138.6</ele>
        <time>2019-11-09T10:57:01Z</time>
      </trkpt>
      <trkpt lat="57.737168755785" lon="12.933597085358">
        <ele>137.8</ele>
        <time>2019-11-09T10:57:06Z</time>
      </trkpt>
      <trkpt lat="57.737056354506" lon="12.933473619971">
        <ele>138.4</ele>
        <time>2019-11-09T10:57:09Z</time>
      </trkpt>
      <trkpt lat="57.736914868034" lon="12.933180504928">
        <ele>138.2</ele>
        <time>2019-11-09T10:57:14Z</time>
      </trkpt>
      <trkpt lat="57.736774555028" lon="12.932930472851">
        <ele>137.6</ele>
        <time>2019-11-09T10:57:19Z</time>
      </trkpt>
      <trkpt lat="57.736593925083" lon="12.932863752927">
        <ele>137.6</ele>
        <time>2019-11-09T10:57:27Z</time>
      </trkpt>
      <trkpt lat="57.736387562705" lon="12.932994007653">
        <ele>136.4</ele>
        <time>2019-11-09T10:57:31Z</time>
      </trkpt>
      <trkpt lat="57.736289997389" lon="12.933047232718">
        <ele>135.2</ele>
        <time>2019-11-09T10:57:33Z</time>
      </trkpt>
      <trkpt lat="57.736198383222" lon="12.933080089766">
        <ele>133.8</ele>
        <time>2019-11-09T10:57:35Z</time>
      </trkpt>
      <trkpt lat="57.736156892817" lon="12.933092243521">
        <ele>133.2</ele>
        <time>2019-11-09T10:57:36Z</time>
      </trkpt>
      <trkpt lat="57.736016915087" lon="12.933048238546">
        <ele>132.8</ele>
        <time>2019-11-09T10:57:40Z</time>
      </trkpt>
      <trkpt lat="57.735975508501" lon="12.933045556338">
        <ele>133</ele>
        <time>2019-11-09T10:57:42Z</time>
      </trkpt>
      <trkpt lat="57.735891605682" lon="12.933110516063">
        <ele>133.4</ele>
        <time>2019-11-09T10:57:46Z</time>
      </trkpt>
      <trkpt lat="57.735686249132" lon="12.933099284317">
        <ele>133.4</ele>
        <time>2019-11-09T10:57:50Z</time>
      </trkpt>
      <trkpt lat="57.735637382655" lon="12.933106828027">
        <ele>133.4</ele>
        <time>2019-11-09T10:57:51Z</time>
      </trkpt>
      <trkpt lat="57.735431858467" lon="12.933224845179">
        <ele>133</ele>
        <time>2019-11-09T10:57:55Z</time>
      </trkpt>
      <trkpt lat="57.735340579576" lon="12.933277734968">
        <ele>132.6</ele>
        <time>2019-11-09T10:57:57Z</time>
      </trkpt>
      <trkpt lat="57.735252653445" lon="12.933357530656">
        <ele>132.6</ele>
        <time>2019-11-09T10:57:59Z</time>
      </trkpt>
      <trkpt lat="57.735094403173" lon="12.933612088959">
        <ele>131.8</ele>
        <time>2019-11-09T10:58:03Z</time>
      </trkpt>
      <trkpt lat="57.735056768442" lon="12.933672187182">
        <ele>132</ele>
        <time>2019-11-09T10:58:04Z</time>
      </trkpt>
      <trkpt lat="57.734973787632" lon="12.933731195758">
        <ele>131.6</ele>
        <time>2019-11-09T10:58:06Z</time>
      </trkpt>
      <trkpt lat="57.734894662496" lon="12.933766483557">
        <ele>131.6</ele>
        <time>2019-11-09T10:58:08Z</time>
      </trkpt>
      <trkpt lat="57.734816124093" lon="12.933812584007">
        <ele>132.4</ele>
        <time>2019-11-09T10:58:10Z</time>
      </trkpt>
      <trkpt lat="57.734650581568" lon="12.933814344206">
        <ele>132.6</ele>
        <time>2019-11-09T10:58:13Z</time>
      </trkpt>
      <trkpt lat="57.73453809647" lon="12.933839322268">
        <ele>132.6</ele>
        <time>2019-11-09T10:58:15Z</time>
      </trkpt>
      <trkpt lat="57.734452349633" lon="12.93395650123">
        <ele>132.6</ele>
        <time>2019-11-09T10:58:17Z</time>
      </trkpt>
      <trkpt lat="57.734415469273" lon="12.934168228024">
        <ele>132.6</ele>
        <time>2019-11-09T10:58:19Z</time>
      </trkpt>
      <trkpt lat="57.734415385454" lon="12.934551280854">
        <ele>133.4</ele>
        <time>2019-11-09T10:58:23Z</time>
      </trkpt>
      <trkpt lat="57.734418570576" lon="12.934582796798">
        <ele>133.4</ele>
        <time>2019-11-09T10:58:24Z</time>
      </trkpt>
    </trkseg>
  </trk>
</gpx>